Snohomish, WA (98290)

11:22 AM PDT on October 24, 2014 (GMT -0700)
Meadow Ridge, Snohomish, WA. | Change Station
CLOSE
Current Station
Personal Weather Station
Location: Snohomish, WA
Elevation: 623 ft
Nearby Weather Stations
Active Advisory: Wind Advisory, Special Statement

Elev 623 ft 47.92 °N, 121.98 °W | Updated 2 minutes ago

Clear
Clear
53.3 °F
Feels Like 53.3 °F
N
0.0
Wind Variable Wind from ENE
Gusts 5.0 mph

Today
High -- | Low -- °F
--% Chance of Precip.
Yesterday
High -- | Low -- °F
Precip. -- in
7:40 AM 6:02 PM
New Moon, 1% visible
Pressure 30.05 in
Visibility 10.0 miles
Clouds Clear
Dew Point 47 °F
Humidity 79%
Rainfall 0.00 in
Snow Depth 0 in
UV 2 out of 12
Pollen .40 out of 12
PM2.5 Good
Flu Activity Sporadic
METAR KPAE 241753Z 11005KT 10SM CLR 12/07 A3005 RMK AO2 SLP176 T01170067 10117 20089 50002

More Conditions Fewer Conditions

Pressure 30.05 in
Visibility 10.0 miles
Clouds Clear
Dew Point 47 °F
Humidity 79%
Rainfall 0.00 in
Snow Depth 0 in
UV 2 out of 12
Pollen .40 out of 12
PM2.5 Good
Flu Activity Sporadic
METAR KPAE 241753Z 11005KT 10SM CLR 12/07 A3005 RMK AO2 SLP176 T01170067 10117 20089 50002

More Conditions Fewer Conditions

10-Day Weather Forecast

Almanac

Astronomy

Oct. 24, 2014 Rise Set
Actual Time 7:40 AM PDT 6:02 PM PDT
Civil Twilight 7:09 AM PDT 6:34 PM PDT
Nautical Twilight 6:32 AM PDT 7:10 PM PDT
Astronomical Twilight 5:56 AM PDT 7:46 PM PDT
Moon 8:28 AM PDT 6:42 PM PDT
Length of Visible Light 11h 25m
Length of Day
10h 22m
Tomorrow will be 3m 16s shorter.
New Moon, 1% of the Moon is Illuminated
Today
New Moon
Oct 30
First Quarter
Nov 6
Full
Nov 14
Last Quarter
Nov 22
New

Community

WunderPhotos

Upload Photos

1,764,631 photos uploaded!

WunderBlogs® & News

Nearby

Air Quality

  Air Quality AQ Index Pollutant
Yesterday Good
OZONE
Yesterday Good
PM2.5
Current Good
PM2.5
Friday Good
PM2.5
Saturday Good
PM2.5
Sunday Good
PM2.5
Monday Good
PM2.5

Snow Depth

Station Depth Elevation
Alpine Meadows 0 in 3500 ft
Skookum Creek 0 in 3920 ft
Mount Gardner 0 in 3000 ft
Stevens Pass 0 in 4070 ft
Olallie Meadows 0 in 3700 ft

Earthquake Activity

City Distance Mag. Time & Date
Birch Bay, Washington 71 miles 2.8 3:02 AM PDT
2014-10-24
Minimum magnitude displayed is 2.5.

Coastal Water Temperatures

Place Temperature
Port Townsend, WA 52.0 °F
Seattle, WA 55.0 °F
Friday Harbor, WA 51.1 °F
Tacoma, WA 53.1 °F

Nearby Weather Stations